Terminal Aerodrome Forecast
Issued by NWS

Home | Current Version | Previous Version | Text Only | Print | Product List | Glossary On
Versions: 1 2 3 4 5 6 7 8 9 10 11 12 13 14 15 16 17 18 19 20 21 22 23 24 25 26 27 28 29 30 31 32 33 34 35 36 37 38 39 40 41 42
000
FTUS45 KBYZ 261720
TAFLVM
TAF
KLVM 261720Z 2618/2718 00000KT P6SM VCSH OVC050
     FM262100 23009KT P6SM VCSH BKN050
     FM270000 23011KT P6SM BKN100
     FM270500 23025G35KT P6SM BKN100
     FM271000 23042G50KT P6SM SCT080=

USA.gov is the U.S. government's official web portal to all federal, state and local government web resources and services.